sensor_id;sensor_type;location;lat;lon;timestamp;pressure;altitude;pressure_sealevel;temperature;humidity
8697;BME280;4385;48.848;8.924;2022-07-29T00:00:01;97216.53;;;25.59;100.00
8697;BME280;4385;48.848;8.924;2022-07-29T00:02:27;97213.16;;;25.59;100.00
8697;BME280;4385;48.848;8.924;2022-07-29T00:04:53;97208.88;;;25.58;100.00
8697;BME280;4385;48.848;8.924;2022-07-29T00:07:18;97214.03;;;25.58;100.00
8697;BME280;4385;48.848;8.924;2022-07-29T00:09:43;97202.91;;;25.57;100.00
8697;BME280;4385;48.848;8.924;2022-07-29T00:12:09;97200.41;;;25.56;100.00
8697;BME280;4385;48.848;8.924;2022-07-29T00:14:34;97205.56;;;25.56;100.00
8697;BME280;4385;48.848;8.924;2022-07-29T00:17:00;97202.25;;;25.53;100.00
8697;BME280;4385;48.848;8.924;2022-07-29T00:19:25;97204.81;;;25.53;100.00
8697;BME280;4385;48.848;8.924;2022-07-29T00:21:50;97200.50;;;25.54;100.00
8697;BME280;4385;48.848;8.924;2022-07-29T00:24:16;97202.25;;;25.53;100.00
8697;BME280;4385;48.848;8.924;2022-07-29T00:26:41;97205.66;;;25.54;100.00
8697;BME280;4385;48.848;8.924;2022-07-29T00:29:06;97198.00;;;25.52;100.00
8697;BME280;4385;48.848;8.924;2022-07-29T00:31:31;97196.25;;;25.53;100.00
8697;BME280;4385;48.848;8.924;2022-07-29T00:33:57;97198.00;;;25.52;100.00
8697;BME280;4385;48.848;8.924;2022-07-29T00:36:22;97196.25;;;25.53;100.00
8697;BME280;4385;48.848;8.924;2022-07-29T00:38:49;97194.59;;;25.52;100.00
8697;BME280;4385;48.848;8.924;2022-07-29T00:41:15;97192.00;;;25.52;100.00
8697;BME280;4385;48.848;8.924;2022-07-29T00:43:40;97188.59;;;25.51;100.00
8697;BME280;4385;48.848;8.924;2022-07-29T00:46:06;97183.44;;;25.51;100.00
8697;BME280;4385;48.848;8.924;2022-07-29T00:48:31;97181.69;;;25.52;100.00
8697;BME280;4385;48.848;8.924;2022-07-29T00:50:57;97178.34;;;25.50;100.00
8697;BME280;4385;48.848;8.924;2022-07-29T00:53:23;97170.63;;;25.50;100.00
8697;BME280;4385;48.848;8.924;2022-07-29T00:55:50;97168.13;;;25.48;100.00
8697;BME280;4385;48.848;8.924;2022-07-29T00:58:15;97171.63;;;25.47;100.00
8697;BME280;4385;48.848;8.924;2022-07-29T01:00:41;97164.81;;;25.46;100.00
8697;BME280;4385;48.848;8.924;2022-07-29T01:03:07;97167.41;;;25.46;100.00
8697;BME280;4385;48.848;8.924;2022-07-29T01:05:34;97164.06;;;25.44;100.00
8697;BME280;4385;48.848;8.924;2022-07-29T01:08:00;97165.00;;;25.43;100.00
8697;BME280;4385;48.848;8.924;2022-07-29T01:10:27;97160.72;;;25.42;100.00
8697;BME280;4385;48.848;8.924;2022-07-29T01:12:55;97165.00;;;25.43;100.00
8697;BME280;4385;48.848;8.924;2022-07-29T01:15:22;97154.69;;;25.43;100.00
8697;BME280;4385;48.848;8.924;2022-07-29T01:18:08;97153.75;;;25.44;100.00
8697;BME280;4385;48.848;8.924;2022-07-29T01:26:41;97157.16;;;25.45;100.00
8697;BME280;4385;48.848;8.924;2022-07-29T01:32:10;97162.34;;;25.45;100.00
8697;BME280;4385;48.848;8.924;2022-07-29T01:34:48;97151.19;;;25.44;100.00
8697;BME280;4385;48.848;8.924;2022-07-29T01:37:19;97148.59;;;25.44;100.00
8697;BME280;4385;48.848;8.924;2022-07-29T01:39:49;97156.34;;;25.44;100.00
8697;BME280;4385;48.848;8.924;2022-07-29T01:42:36;97152.09;;;25.43;100.00
8697;BME280;4385;48.848;8.924;2022-07-29T01:48:13;97147.84;;;25.42;100.00
8697;BME280;4385;48.848;8.924;2022-07-29T01:50:46;97145.25;;;25.42;100.00
8697;BME280;4385;48.848;8.924;2022-07-29T01:53:18;97153.00;;;25.42;100.00
8697;BME280;4385;48.848;8.924;2022-07-29T01:55:46;97149.53;;;25.43;100.00
8697;BME280;4385;48.848;8.924;2022-07-29T01:58:14;97145.25;;;25.42;100.00
8697;BME280;4385;48.848;8.924;2022-07-29T02:00:44;97151.34;;;25.41;100.00
8697;BME280;4385;48.848;8.924;2022-07-29T02:03:11;97143.69;;;25.39;100.00
8697;BME280;4385;48.848;8.924;2022-07-29T02:05:41;97141.13;;;25.39;100.00
8697;BME280;4385;48.848;8.924;2022-07-29T02:08:08;97142.84;;;25.39;100.00
8697;BME280;4385;48.848;8.924;2022-07-29T02:10:35;97142.69;;;25.42;100.00
8697;BME280;4385;48.848;8.924;2022-07-29T02:13:04;97139.38;;;25.40;100.00
8697;BME280;4385;48.848;8.924;2022-07-29T02:15:32;97142.84;;;25.39;100.00
8697;BME280;4385;48.848;8.924;2022-07-29T02:18:09;97148.00;;;25.39;100.00
8697;BME280;4385;48.848;8.924;2022-07-29T02:20:37;97143.78;;;25.38;100.00
8697;BME280;4385;48.848;8.924;2022-07-29T02:23:03;97142.84;;;25.39;100.00
8697;BME280;4385;48.848;8.924;2022-07-29T02:25:29;97142.84;;;25.39;100.00
8697;BME280;4385;48.848;8.924;2022-07-29T02:27:55;97142.84;;;25.39;100.00
8697;BME280;4385;48.848;8.924;2022-07-29T02:30:22;97145.44;;;25.39;100.00
8697;BME280;4385;48.848;8.924;2022-07-29T02:32:49;97151.44;;;25.39;100.00
8697;BME280;4385;48.848;8.924;2022-07-29T02:35:16;97156.59;;;25.39;100.00
8697;BME280;4385;48.848;8.924;2022-07-29T02:37:43;97151.50;;;25.38;100.00
8697;BME280;4385;48.848;8.924;2022-07-29T02:40:11;97139.47;;;25.38;100.00
8697;BME280;4385;48.848;8.924;2022-07-29T02:42:41;97146.34;;;25.38;100.00
8697;BME280;4385;48.848;8.924;2022-07-29T02:45:07;97141.19;;;25.38;100.00
8697;BME280;4385;48.848;8.924;2022-07-29T02:47:43;97146.34;;;25.38;100.00
8697;BME280;4385;48.848;8.924;2022-07-29T02:50:15;97142.94;;;25.37;100.00
8697;BME280;4385;48.848;8.924;2022-07-29T02:52:59;97147.28;;;25.37;100.00
8697;BME280;4385;48.848;8.924;2022-07-29T02:55:32;97143.03;;;25.36;100.00
8697;BME280;4385;48.848;8.924;2022-07-29T02:58:17;97148.19;;;25.36;100.00
8697;BME280;4385;48.848;8.924;2022-07-29T03:00:48;97139.72;;;25.34;100.00
8697;BME280;4385;48.848;8.924;2022-07-29T03:03:17;97144.03;;;25.33;100.00
8697;BME280;4385;48.848;8.924;2022-07-29T03:05:44;97150.03;;;25.34;100.00
8697;BME280;4385;48.848;8.924;2022-07-29T03:08:11;97145.78;;;25.33;100.00
8697;BME280;4385;48.848;8.924;2022-07-29T03:10:39;97144.03;;;25.33;100.00
8697;BME280;4385;48.848;8.924;2022-07-29T03:13:07;97155.19;;;25.34;100.00
8697;BME280;4385;48.848;8.924;2022-07-29T03:15:34;97150.84;;;25.34;100.00
8697;BME280;4385;48.848;8.924;2022-07-29T03:18:01;97150.03;;;25.34;100.00
8697;BME280;4385;48.848;8.924;2022-07-29T03:20:27;97151.69;;;25.35;100.00
8697;BME280;4385;48.848;8.924;2022-07-29T03:22:52;97156.84;;;25.35;100.00
8697;BME280;4385;48.848;8.924;2022-07-29T03:25:19;97153.44;;;25.34;100.00
8697;BME280;4385;48.848;8.924;2022-07-29T03:27:45;97159.44;;;25.35;100.00
8697;BME280;4385;48.848;8.924;2022-07-29T03:30:12;97150.84;;;25.34;100.00
8697;BME280;4385;48.848;8.924;2022-07-29T03:32:39;97152.63;;;25.34;100.00
8697;BME280;4385;48.848;8.924;2022-07-29T03:35:05;97147.47;;;25.34;100.00
8697;BME280;4385;48.848;8.924;2022-07-29T03:37:31;97150.03;;;25.34;100.00
8697;BME280;4385;48.848;8.924;2022-07-29T03:39:59;97155.19;;;25.34;100.00
8697;BME280;4385;48.848;8.924;2022-07-29T03:42:28;97144.03;;;25.33;100.00
8697;BME280;4385;48.848;8.924;2022-07-29T03:44:57;97145.78;;;25.33;100.00
8697;BME280;4385;48.848;8.924;2022-07-29T03:47:25;97148.53;;;25.30;100.00
8697;BME280;4385;48.848;8.924;2022-07-29T03:49:54;97150.56;;;25.24;100.00
8697;BME280;4385;48.848;8.924;2022-07-29T03:52:22;97147.47;;;25.18;100.00
8697;BME280;4385;48.848;8.924;2022-07-29T03:54:47;97152.88;;;25.13;100.00
8697;BME280;4385;48.848;8.924;2022-07-29T03:57:14;97147.91;;;25.10;100.00
8697;BME280;4385;48.848;8.924;2022-07-29T03:59:41;97152.38;;;25.06;100.00
8697;BME280;4385;48.848;8.924;2022-07-29T04:02:09;97151.66;;;25.04;100.00
8697;BME280;4385;48.848;8.924;2022-07-29T04:04:36;97146.59;;;25.02;100.00
8697;BME280;4385;48.848;8.924;2022-07-29T04:07:02;97147.66;;;24.98;100.00
8697;BME280;4385;48.848;8.924;2022-07-29T04:09:28;97146.84;;;24.98;100.00
8697;BME280;4385;48.848;8.924;2022-07-29T04:11:53;97146.91;;;24.96;100.00
8697;BME280;4385;48.848;8.924;2022-07-29T04:14:18;97145.25;;;24.95;100.00
8697;BME280;4385;48.848;8.924;2022-07-29T04:16:44;97151.31;;;24.94;100.00
8697;BME280;4385;48.848;8.924;2022-07-29T04:19:09;97151.41;;;24.93;100.00
8697;BME280;4385;48.848;8.924;2022-07-29T04:21:38;97151.47;;;24.91;100.00
8697;BME280;4385;48.848;8.924;2022-07-29T04:24:04;97163.44;;;24.92;100.00
8697;BME280;4385;48.848;8.924;2022-07-29T04:26:30;97157.56;;;24.90;100.00
8697;BME280;4385;48.848;8.924;2022-07-29T04:28:55;97156.72;;;24.89;100.00
8697;BME280;4385;48.848;8.924;2022-07-29T04:31:20;97151.56;;;24.89;100.00
8697;BME280;4385;48.848;8.924;2022-07-29T04:33:46;97153.31;;;24.89;100.00
8697;BME280;4385;48.848;8.924;2022-07-29T04:36:11;97155.88;;;24.89;100.00
8697;BME280;4385;48.848;8.924;2022-07-29T04:38:37;97152.50;;;24.88;100.00
8697;BME280;4385;48.848;8.924;2022-07-29T04:41:02;97150.78;;;24.87;100.00
8697;BME280;4385;48.848;8.924;2022-07-29T04:43:28;97155.94;;;24.87;100.00
8697;BME280;4385;48.848;8.924;2022-07-29T04:45:53;97159.44;;;24.86;100.00
8697;BME280;4385;48.848;8.924;2022-07-29T04:48:18;97157.69;;;24.87;100.00
8697;BME280;4385;48.848;8.924;2022-07-29T04:50:44;97152.63;;;24.85;100.00
8697;BME280;4385;48.848;8.924;2022-07-29T04:53:09;97156.00;;;24.86;100.00
8697;BME280;4385;48.848;8.924;2022-07-29T04:55:35;97159.44;;;24.86;100.00
8697;BME280;4385;48.848;8.924;2022-07-29T04:58:01;97157.88;;;24.84;100.00
8697;BME280;4385;48.848;8.924;2022-07-29T05:00:27;97155.28;;;24.84;100.00
8697;BME280;4385;48.848;8.924;2022-07-29T05:02:52;97153.53;;;24.84;100.00
8697;BME280;4385;48.848;8.924;2022-07-29T05:05:17;97157.88;;;24.84;100.00
8697;BME280;4385;48.848;8.924;2022-07-29T05:07:43;97160.44;;;24.84;100.00
8697;BME280;4385;48.848;8.924;2022-07-29T05:10:08;97159.59;;;24.83;100.00
8697;BME280;4385;48.848;8.924;2022-07-29T05:12:34;97167.41;;;24.82;100.00
8697;BME280;4385;48.848;8.924;2022-07-29T05:14:59;97170.00;;;24.82;100.00
8697;BME280;4385;48.848;8.924;2022-07-29T05:17:25;97167.41;;;24.82;100.00
8697;BME280;4385;48.848;8.924;2022-07-29T05:19:50;97159.69;;;24.82;100.00
8697;BME280;4385;48.848;8.924;2022-07-29T05:22:20;97169.16;;;24.81;100.00
8697;BME280;4385;48.848;8.924;2022-07-29T05:24:45;97165.75;;;24.81;100.00
8697;BME280;4385;48.848;8.924;2022-07-29T05:27:11;97168.34;;;24.81;100.00
8697;BME280;4385;48.848;8.924;2022-07-29T05:29:36;97169.16;;;24.81;100.00
8697;BME280;4385;48.848;8.924;2022-07-29T05:32:02;97168.25;;;24.82;100.00
8697;BME280;4385;48.848;8.924;2022-07-29T05:34:28;97180.28;;;24.82;100.00
8697;BME280;4385;48.848;8.924;2022-07-29T05:36:53;97178.56;;;24.82;100.00
8697;BME280;4385;48.848;8.924;2022-07-29T05:39:18;97180.28;;;24.82;100.00
8697;BME280;4385;48.848;8.924;2022-07-29T05:41:44;97181.94;;;24.83;100.00
8697;BME280;4385;48.848;8.924;2022-07-29T05:44:09;97186.28;;;24.82;100.00
8697;BME280;4385;48.848;8.924;2022-07-29T05:46:34;97180.28;;;24.82;100.00
8697;BME280;4385;48.848;8.924;2022-07-29T05:48:59;97184.53;;;24.83;100.00
8697;BME280;4385;48.848;8.924;2022-07-29T05:51:25;97182.78;;;24.83;100.00
8697;BME280;4385;48.848;8.924;2022-07-29T05:53:51;97187.78;;;24.86;100.00
8697;BME280;4385;48.848;8.924;2022-07-29T05:56:16;97198.63;;;24.93;100.00
8697;BME280;4385;48.848;8.924;2022-07-29T05:58:41;97189.97;;;24.94;100.00
8697;BME280;4385;48.848;8.924;2022-07-29T06:01:07;97194.28;;;24.94;100.00
8697;BME280;4385;48.848;8.924;2022-07-29T06:03:32;97197.78;;;24.93;100.00
8697;BME280;4385;48.848;8.924;2022-07-29T06:05:57;97188.31;;;24.93;100.00
8697;BME280;4385;48.848;8.924;2022-07-29T06:08:23;97204.50;;;24.95;100.00
8697;BME280;4385;48.848;8.924;2022-07-29T06:10:48;97206.13;;;24.98;100.00
8697;BME280;4385;48.848;8.924;2022-07-29T06:13:13;97212.84;;;25.00;100.00
8697;BME280;4385;48.848;8.924;2022-07-29T06:15:41;97213.59;;;25.02;100.00
8697;BME280;4385;48.848;8.924;2022-07-29T06:18:06;97211.75;;;25.05;100.00
8697;BME280;4385;48.848;8.924;2022-07-29T06:20:34;97209.94;;;25.07;100.00
8697;BME280;4385;48.848;8.924;2022-07-29T06:23:00;97207.28;;;25.08;100.00
8697;BME280;4385;48.848;8.924;2022-07-29T06:25:26;97214.00;;;25.11;100.00
8697;BME280;4385;48.848;8.924;2022-07-29T06:27:51;97212.94;;;25.15;100.00
8697;BME280;4385;48.848;8.924;2022-07-29T06:30:17;97210.28;;;25.17;100.00
8697;BME280;4385;48.848;8.924;2022-07-29T06:32:42;97211.00;;;25.19;100.00
8697;BME280;4385;48.848;8.924;2022-07-29T06:35:08;97209.25;;;25.19;100.00
8697;BME280;4385;48.848;8.924;2022-07-29T06:37:33;97212.59;;;25.21;100.00
8697;BME280;4385;48.848;8.924;2022-07-29T06:40:00;97215.91;;;25.23;100.00
8697;BME280;4385;48.848;8.924;2022-07-29T06:42:44;97213.25;;;25.25;100.00
8697;BME280;4385;48.848;8.924;2022-07-29T06:45:10;97217.44;;;25.27;100.00
8697;BME280;4385;48.848;8.924;2022-07-29T06:47:36;97224.22;;;25.28;100.00
8697;BME280;4385;48.848;8.924;2022-07-29T06:50:01;97220.72;;;25.30;100.00
8697;BME280;4385;48.848;8.924;2022-07-29T06:52:27;97224.06;;;25.32;100.00
8697;BME280;4385;48.848;8.924;2022-07-29T06:54:52;97222.25;;;25.34;100.00
8697;BME280;4385;48.848;8.924;2022-07-29T06:57:18;97225.56;;;25.36;100.00
8697;BME280;4385;48.848;8.924;2022-07-29T06:59:43;97233.19;;;25.37;100.00
8697;BME280;4385;48.848;8.924;2022-07-29T07:02:09;97224.56;;;25.38;100.00
8697;BME280;4385;48.848;8.924;2022-07-29T07:04:35;97226.22;;;25.39;100.00
8697;BME280;4385;48.848;8.924;2022-07-29T07:07:00;97229.56;;;25.42;100.00
8697;BME280;4385;48.848;8.924;2022-07-29T07:09:25;97232.06;;;25.43;100.00
8697;BME280;4385;48.848;8.924;2022-07-29T07:11:51;97236.28;;;25.44;100.00
8697;BME280;4385;48.848;8.924;2022-07-29T07:14:16;97233.72;;;25.44;100.00
8697;BME280;4385;48.848;8.924;2022-07-29T07:16:41;97240.53;;;25.45;100.00
8697;BME280;4385;48.848;8.924;2022-07-29T07:19:07;97237.03;;;25.46;100.00
8697;BME280;4385;48.848;8.924;2022-07-29T07:21:32;97242.13;;;25.48;100.00
8697;BME280;4385;48.848;8.924;2022-07-29T07:23:59;97237.78;;;25.48;100.00
8697;BME280;4385;48.848;8.924;2022-07-29T07:26:24;97244.59;;;25.49;100.00
8697;BME280;4385;48.848;8.924;2022-07-29T07:28:50;97239.38;;;25.51;100.00
8697;BME280;4385;48.848;8.924;2022-07-29T07:31:15;97242.59;;;25.55;100.00
8697;BME280;4385;48.848;8.924;2022-07-29T07:33:41;97240.00;;;25.55;100.00
8697;BME280;4385;48.848;8.924;2022-07-29T07:36:06;97244.19;;;25.57;100.00
8697;BME280;4385;48.848;8.924;2022-07-29T07:38:31;97241.59;;;25.57;100.00
8697;BME280;4385;48.848;8.924;2022-07-29T07:40:57;97244.91;;;25.59;100.00
8697;BME280;4385;48.848;8.924;2022-07-29T07:43:22;97250.84;;;25.61;100.00
8697;BME280;4385;48.848;8.924;2022-07-29T07:45:47;97245.63;;;25.63;100.00
8697;BME280;4385;48.848;8.924;2022-07-29T07:48:13;97246.38;;;25.65;100.00
8697;BME280;4385;48.848;8.924;2022-07-29T07:50:38;97245.44;;;25.66;100.00
8697;BME280;4385;48.848;8.924;2022-07-29T07:53:03;97245.34;;;25.68;100.00
8697;BME280;4385;48.848;8.924;2022-07-29T07:55:29;97246.94;;;25.70;100.00
8697;BME280;4385;48.848;8.924;2022-07-29T07:57:54;97247.75;;;25.71;100.00
8697;BME280;4385;48.848;8.924;2022-07-29T08:00:21;97246.84;;;25.72;100.00
8697;BME280;4385;48.848;8.924;2022-07-29T08:02:46;97250.25;;;25.72;100.00
8697;BME280;4385;48.848;8.924;2022-07-29T08:05:12;97254.50;;;25.73;100.00
8697;BME280;4385;48.848;8.924;2022-07-29T08:07:45;97245.84;;;25.74;100.00
8697;BME280;4385;48.848;8.924;2022-07-29T08:10:11;97250.09;;;25.75;100.00
8697;BME280;4385;48.848;8.924;2022-07-29T08:12:36;97251.75;;;25.76;100.00
8697;BME280;4385;48.848;8.924;2022-07-29T08:15:03;97254.31;;;25.76;100.00
8697;BME280;4385;48.848;8.924;2022-07-29T08:17:28;97247.34;;;25.78;100.00
8697;BME280;4385;48.848;8.924;2022-07-29T08:19:54;97249.06;;;25.78;100.00
8697;BME280;4385;48.848;8.924;2022-07-29T08:22:19;97258.41;;;25.81;100.00
8697;BME280;4385;48.848;8.924;2022-07-29T08:24:45;97254.91;;;25.82;100.00
8697;BME280;4385;48.848;8.924;2022-07-29T08:27:28;97246.22;;;25.83;100.00
8697;BME280;4385;48.848;8.924;2022-07-29T08:29:55;97252.16;;;25.85;100.00
8697;BME280;4385;48.848;8.924;2022-07-29T08:32:21;97247.75;;;25.87;100.00
8697;BME280;4385;48.848;8.924;2022-07-29T08:34:46;97241.66;;;25.88;100.00
8697;BME280;4385;48.848;8.924;2022-07-29T08:37:12;97257.13;;;25.88;100.00
8697;BME280;4385;48.848;8.924;2022-07-29T08:39:37;97252.56;;;25.93;100.00
8697;BME280;4385;48.848;8.924;2022-07-29T08:42:03;97251.78;;;25.91;100.00
8697;BME280;4385;48.848;8.924;2022-07-29T08:44:28;97252.63;;;25.92;100.00
8697;BME280;4385;48.848;8.924;2022-07-29T08:46:54;97249.97;;;25.93;100.00
8697;BME280;4385;48.848;8.924;2022-07-29T08:49:19;97251.72;;;25.93;100.00
8697;BME280;4385;48.848;8.924;2022-07-29T08:51:45;97255.13;;;25.93;100.00
8697;BME280;4385;48.848;8.924;2022-07-29T08:54:11;97253.28;;;25.95;100.00
8697;BME280;4385;48.848;8.924;2022-07-29T08:56:41;97247.13;;;25.98;100.00
8697;BME280;4385;48.848;8.924;2022-07-29T08:59:08;97250.59;;;25.97;100.00
8697;BME280;4385;48.848;8.924;2022-07-29T09:01:37;97252.38;;;25.96;100.00
8697;BME280;4385;48.848;8.924;2022-07-29T09:04:04;97254.88;;;25.98;100.00
8697;BME280;4385;48.848;8.924;2022-07-29T09:06:32;97249.78;;;25.96;100.00
8697;BME280;4385;48.848;8.924;2022-07-29T09:08:59;97252.38;;;25.96;100.00
8697;BME280;4385;48.848;8.924;2022-07-29T09:11:25;97256.63;;;25.97;100.00
8697;BME280;4385;48.848;8.924;2022-07-29T09:13:51;97247.13;;;25.98;100.00
8697;BME280;4385;48.848;8.924;2022-07-29T09:16:17;97265.91;;;26.00;100.00
8697;BME280;4385;48.848;8.924;2022-07-29T09:18:44;97263.44;;;25.98;100.00
8697;BME280;4385;48.848;8.924;2022-07-29T09:21:15;97261.59;;;26.00;100.00
8697;BME280;4385;48.848;8.924;2022-07-29T09:24:10;97259.94;;;25.99;100.00
8697;BME280;4385;48.848;8.924;2022-07-29T09:26:41;97258.25;;;25.98;100.00
8697;BME280;4385;48.848;8.924;2022-07-29T09:31:42;97258.34;;;25.97;100.00
8697;BME280;4385;48.848;8.924;2022-07-29T09:34:09;97254.22;;;25.94;100.00
8697;BME280;4385;48.848;8.924;2022-07-29T09:36:42;97249.13;;;25.93;100.00
8697;BME280;4385;48.848;8.924;2022-07-29T09:39:08;97249.13;;;25.93;100.00
8697;BME280;4385;48.848;8.924;2022-07-29T09:41:44;97258.78;;;25.89;100.00
8697;BME280;4385;48.848;8.924;2022-07-29T09:44:10;97250.31;;;25.87;100.00
8697;BME280;4385;48.848;8.924;2022-07-29T09:46:36;97245.50;;;25.81;100.00
8697;BME280;4385;48.848;8.924;2022-07-29T09:49:12;97239.69;;;25.77;100.00
8697;BME280;4385;48.848;8.924;2022-07-29T09:51:38;97242.34;;;25.75;100.00
8697;BME280;4385;48.848;8.924;2022-07-29T09:54:24;97241.59;;;25.73;100.00
8697;BME280;4385;48.848;8.924;2022-07-29T09:56:50;97246.03;;;25.71;100.00
8697;BME280;4385;48.848;8.924;2022-07-29T09:59:16;97236.78;;;25.67;100.00
8697;BME280;4385;48.848;8.924;2022-07-29T10:01:42;97237.69;;;25.66;100.00
8697;BME280;4385;48.848;8.924;2022-07-29T10:04:07;97238.72;;;25.63;100.00
8697;BME280;4385;48.848;8.924;2022-07-29T10:06:32;97241.28;;;25.63;100.00
8697;BME280;4385;48.848;8.924;2022-07-29T10:09:10;97247.34;;;25.62;100.00
8697;BME280;4385;48.848;8.924;2022-07-29T10:11:36;97244.84;;;25.61;100.00
8697;BME280;4385;48.848;8.924;2022-07-29T10:14:02;97246.53;;;25.62;100.00
8697;BME280;4385;48.848;8.924;2022-07-29T10:16:28;97240.53;;;25.61;100.00
8697;BME280;4385;48.848;8.924;2022-07-29T10:18:58;97239.69;;;25.61;100.00
8697;BME280;4385;48.848;8.924;2022-07-29T10:21:25;97232.84;;;25.60;100.00
8697;BME280;4385;48.848;8.924;2022-07-29T10:23:50;97238.00;;;25.60;100.00
8697;BME280;4385;48.848;8.924;2022-07-29T10:26:16;97237.16;;;25.59;100.00
8697;BME280;4385;48.848;8.924;2022-07-29T10:28:42;97242.34;;;25.59;100.00
8697;BME280;4385;48.848;8.924;2022-07-29T10:31:13;97244.84;;;25.61;100.00
8697;BME280;4385;48.848;8.924;2022-07-29T10:34:03;97246.69;;;25.59;100.00
8697;BME280;4385;48.848;8.924;2022-07-29T10:42:18;97237.34;;;25.56;100.00
8697;BME280;4385;48.848;8.924;2022-07-29T10:44:46;97238.28;;;25.55;100.00
8697;BME280;4385;48.848;8.924;2022-07-29T10:47:21;97245.16;;;25.55;100.00
8697;BME280;4385;48.848;8.924;2022-07-29T10:50:19;97242.59;;;25.55;100.00
8697;BME280;4385;48.848;8.924;2022-07-29T10:55:34;97244.44;;;25.52;100.00
8697;BME280;4385;48.848;8.924;2022-07-29T10:58:23;97235.03;;;25.51;100.00
8697;BME280;4385;48.848;8.924;2022-07-29T11:00:53;97232.53;;;25.50;100.00
8697;BME280;4385;48.848;8.924;2022-07-29T11:06:05;97214.56;;;25.48;100.00
8697;BME280;4385;48.848;8.924;2022-07-29T11:08:31;97215.47;;;25.47;100.00
8697;BME280;4385;48.848;8.924;2022-07-29T11:11:30;97211.25;;;25.46;100.00
8697;BME280;4385;48.848;8.924;2022-07-29T11:13:55;97219.06;;;25.45;100.00
8697;BME280;4385;48.848;8.924;2022-07-29T11:16:22;97215.66;;;25.44;100.00
8697;BME280;4385;48.848;8.924;2022-07-29T11:21:39;97209.56;;;25.45;100.00
8697;BME280;4385;48.848;8.924;2022-07-29T11:24:15;97209.66;;;25.44;100.00
8697;BME280;4385;48.848;8.924;2022-07-29T11:26:41;97224.16;;;25.46;100.00
8697;BME280;4385;48.848;8.924;2022-07-29T11:29:19;97226.72;;;25.46;100.00
8697;BME280;4385;48.848;8.924;2022-07-29T11:31:47;97219.72;;;25.48;100.00
8697;BME280;4385;48.848;8.924;2022-07-29T11:39:30;97226.56;;;25.49;100.00
8697;BME280;4385;48.848;8.924;2022-07-29T11:48:14;97223.13;;;25.49;100.00
8697;BME280;4385;48.848;8.924;2022-07-29T11:50:29;97221.41;;;25.49;100.00
8697;BME280;4385;48.848;8.924;2022-07-29T11:52:55;97223.06;;;25.50;100.00
8697;BME280;4385;48.848;8.924;2022-07-29T11:55:23;97237.59;;;25.51;100.00
8697;BME280;4385;48.848;8.924;2022-07-29T11:57:56;97240.19;;;25.51;100.00
8697;BME280;4385;48.848;8.924;2022-07-29T12:00:24;97238.53;;;25.50;100.00
8697;BME280;4385;48.848;8.924;2022-07-29T12:02:50;97238.53;;;25.50;100.00
8697;BME280;4385;48.848;8.924;2022-07-29T12:05:16;97237.69;;;25.50;100.00
8697;BME280;4385;48.848;8.924;2022-07-29T12:07:41;97236.88;;;25.49;100.00
8697;BME280;4385;48.848;8.924;2022-07-29T12:10:08;97236.03;;;25.49;100.00
8697;BME280;4385;48.848;8.924;2022-07-29T12:12:34;97233.53;;;25.47;100.00
8697;BME280;4385;48.848;8.924;2022-07-29T12:15:13;97230.03;;;25.48;100.00
8697;BME280;4385;48.848;8.924;2022-07-29T12:17:40;97227.44;;;25.48;100.00
8697;BME280;4385;48.848;8.924;2022-07-29T12:20:06;97225.81;;;25.47;100.00
8697;BME280;4385;48.848;8.924;2022-07-29T12:22:35;97235.28;;;25.47;100.00
8697;BME280;4385;48.848;8.924;2022-07-29T12:25:09;97242.19;;;25.46;100.00
8697;BME280;4385;48.848;8.924;2022-07-29T12:27:36;97242.19;;;25.46;100.00
8697;BME280;4385;48.848;8.924;2022-07-29T12:30:06;97240.44;;;25.47;100.00
8697;BME280;4385;48.848;8.924;2022-07-29T12:32:58;97240.44;;;25.47;100.00
8697;BME280;4385;48.848;8.924;2022-07-29T12:35:23;97237.03;;;25.46;100.00
8697;BME280;4385;48.848;8.924;2022-07-29T12:37:48;97237.84;;;25.47;100.00
8697;BME280;4385;48.848;8.924;2022-07-29T12:40:16;97238.69;;;25.47;100.00
8697;BME280;4385;48.848;8.924;2022-07-29T12:43:07;97234.47;;;25.46;100.00
8697;BME280;4385;48.848;8.924;2022-07-29T12:45:34;97239.72;;;25.45;100.00
8697;BME280;4385;48.848;8.924;2022-07-29T12:47:59;97238.03;;;25.44;100.00
8697;BME280;4385;48.848;8.924;2022-07-29T12:50:25;97244.19;;;25.41;100.00
8697;BME280;4385;48.848;8.924;2022-07-29T12:52:51;97239.97;;;25.40;100.00
8697;BME280;4385;48.848;8.924;2022-07-29T12:55:40;97244.19;;;25.41;100.00
8697;BME280;4385;48.848;8.924;2022-07-29T12:58:05;97245.03;;;25.42;100.00
8697;BME280;4385;48.848;8.924;2022-07-29T13:00:31;97241.53;;;25.43;100.00
8697;BME280;4385;48.848;8.924;2022-07-29T13:02:59;97248.44;;;25.42;100.00
8697;BME280;4385;48.848;8.924;2022-07-29T13:05:42;97244.94;;;25.43;100.00
8697;BME280;4385;48.848;8.924;2022-07-29T13:08:13;97248.44;;;25.42;100.00
8697;BME280;4385;48.848;8.924;2022-07-29T13:10:39;97251.00;;;25.42;100.00
8697;BME280;4385;48.848;8.924;2022-07-29T13:15:31;97252.69;;;25.43;100.00
8697;BME280;4385;48.848;8.924;2022-07-29T13:17:56;97251.84;;;25.43;100.00
8697;BME280;4385;48.848;8.924;2022-07-29T13:20:25;97257.00;;;25.43;100.00
8697;BME280;4385;48.848;8.924;2022-07-29T13:22:54;97257.84;;;25.43;100.00
8697;BME280;4385;48.848;8.924;2022-07-29T13:25:32;97257.84;;;25.43;100.00
8697;BME280;4385;48.848;8.924;2022-07-29T13:27:59;97257.00;;;25.43;100.00
8697;BME280;4385;48.848;8.924;2022-07-29T13:30:25;97263.81;;;25.44;100.00
8697;BME280;4385;48.848;8.924;2022-07-29T13:32:52;97263.81;;;25.44;100.00
8697;BME280;4385;48.848;8.924;2022-07-29T13:35:18;97263.00;;;25.43;100.00
8697;BME280;4385;48.848;8.924;2022-07-29T13:37:44;97264.66;;;25.44;100.00
8697;BME280;4385;48.848;8.924;2022-07-29T13:40:10;97259.50;;;25.44;100.00
8697;BME280;4385;48.848;8.924;2022-07-29T13:42:36;97263.00;;;25.43;100.00
8697;BME280;4385;48.848;8.924;2022-07-29T13:45:03;97251.00;;;25.42;100.00
8697;BME280;4385;48.848;8.924;2022-07-29T13:47:29;97257.84;;;25.43;100.00
8697;BME280;4385;48.848;8.924;2022-07-29T13:49:55;97251.84;;;25.43;100.00
8697;BME280;4385;48.848;8.924;2022-07-29T13:52:20;97255.25;;;25.43;100.00
8697;BME280;4385;48.848;8.924;2022-07-29T13:54:46;97247.53;;;25.43;100.00